Time;durP1;ratioP1;P1;durP2;ratioP2;P2;SDS_P1;SDS_P2;PMS_P1;PMS_P2;Temp;Humidity;BMP_temperature;BMP_pressure;BME280_temperature;BME280_humidity;BME280_pressure;Samples;Min_cycle;Max_cycle;Signal;HPM_P1;HPM_P2
2023/04/03 00:02:54;;;;;;;13.00;11.70;;;21.30;71.60;;;;;;6194566;28;89027;-72
2023/04/03 00:05:56;;;;;;;13.15;11.95;;;21.30;71.60;;;;;;6196153;28;89274;-72
2023/04/03 00:08:58;;;;;;;12.20;11.00;;;21.30;71.60;;;;;;6193839;28;89145;-71
2023/04/03 00:12:00;;;;;;;13.60;12.20;;;21.30;71.60;;;;;;6199232;28;89248;-71
2023/04/03 00:15:05;;;;;;;11.77;10.68;;;21.20;71.50;;;;;;6199504;28;87529;-71
2023/04/03 00:18:08;;;;;;;11.90;10.65;;;21.20;71.50;;;;;;6191203;28;89012;-71
2023/04/03 00:21:12;;;;;;;12.18;10.98;;;21.20;71.50;;;;;;6202270;28;89064;-71
2023/04/03 00:24:15;;;;;;;11.65;10.55;;;21.20;71.50;;;;;;6197893;28;89466;-71
2023/04/03 00:27:17;;;;;;;11.35;10.25;;;21.20;71.50;;;;;;6205436;28;88994;-72
2023/04/03 00:30:22;;;;;;;11.68;10.57;;;21.20;71.50;;;;;;6182535;28;89491;-70
2023/04/03 00:33:24;;;;;;;11.70;10.60;;;21.20;71.50;;;;;;6202368;28;89275;-72
2023/04/03 00:36:26;;;;;;;11.25;10.15;;;21.20;71.40;;;;;;6192057;28;89076;-71
2023/04/03 00:39:28;;;;;;;11.85;10.65;;;21.20;71.50;;;;;;6201721;28;89021;-72
2023/04/03 00:42:31;;;;;;;11.57;10.38;;;21.20;71.50;;;;;;6205762;28;89017;-72
2023/04/03 00:45:37;;;;;;;11.50;10.40;;;21.20;71.50;;;;;;6199356;28;88466;-71
2023/04/03 00:48:42;;;;;;;11.95;10.85;;;21.20;71.50;;;;;;6203560;28;89512;-71
2023/04/03 00:51:45;;;;;;;10.95;9.95;;;21.20;71.50;;;;;;6181206;28;89222;-72
2023/04/03 00:54:49;;;;;;;10.38;9.38;;;21.20;71.50;;;;;;6189215;28;90406;-71
2023/04/03 00:57:53;;;;;;;10.73;9.68;;;21.20;71.60;;;;;;6190391;28;89007;-72
2023/04/03 01:00:59;;;;;;;10.52;9.43;;;21.10;71.50;;;;;;6188465;28;88039;-71
2023/04/03 01:04:02;;;;;;;10.65;9.55;;;21.20;71.60;;;;;;6189017;28;89140;-72
2023/04/03 01:07:07;;;;;;;10.50;9.50;;;21.20;71.50;;;;;;6200166;28;89043;-72
2023/04/03 01:10:13;;;;;;;10.13;9.15;;;21.10;71.40;;;;;;6194331;28;89083;-71
2023/04/03 01:13:21;;;;;;;10.38;9.38;;;21.20;71.50;;;;;;6193990;28;87123;-71
2023/04/03 01:16:25;;;;;;;9.90;9.00;;;21.20;71.50;;;;;;6201006;28;88395;-72
2023/04/03 01:19:27;;;;;;;9.68;8.77;;;21.10;71.40;;;;;;6198819;28;89030;-72
2023/04/03 01:22:35;;;;;;;9.65;8.75;;;21.10;71.50;;;;;;6200493;28;89476;-72
2023/04/03 01:25:39;;;;;;;9.73;8.82;;;21.10;71.60;;;;;;6193148;28;89984;-72
2023/04/03 01:28:41;;;;;;;10.07;9.07;;;21.10;71.60;;;;;;6180177;28;88247;-71
2023/04/03 01:31:52;;;;;;;9.30;8.40;;;21.10;71.50;;;;;;6194420;28;89378;-72
2023/04/03 01:34:54;;;;;;;9.75;8.75;;;21.10;71.60;;;;;;6191682;28;89563;-72
2023/04/03 01:37:56;;;;;;;9.63;8.63;;;21.10;71.60;;;;;;6204577;28;89188;-72
2023/04/03 01:40:58;;;;;;;9.38;8.48;;;21.10;71.60;;;;;;6203067;28;89219;-72
2023/04/03 01:44:00;;;;;;;8.90;8.10;;;21.10;71.50;;;;;;6202194;28;89024;-71
2023/04/03 01:47:06;;;;;;;9.48;8.57;;;21.10;71.50;;;;;;6196420;28;88393;-72
2023/04/03 01:50:09;;;;;;;8.75;7.95;;;21.10;71.60;;;;;;6206872;28;89140;-72
2023/04/03 01:53:11;;;;;;;8.82;8.00;;;21.00;71.40;;;;;;6192742;28;88903;-71
2023/04/03 01:56:13;;;;;;;8.60;7.80;;;21.00;71.50;;;;;;6204664;28;90013;-72
2023/04/03 01:59:16;;;;;;;8.70;7.90;;;21.10;71.60;;;;;;6192723;28;89510;-72
2023/04/03 02:02:20;;;;;;;9.05;8.15;;;21.00;71.40;;;;;;6180079;28;89443;-72
2023/04/03 02:05:22;;;;;;;8.30;7.50;;;21.00;71.50;;;;;;6201775;28;89096;-72
2023/04/03 02:08:24;;;;;;;7.88;7.18;;;21.00;71.50;;;;;;6184520;28;89081;-72
2023/04/03 02:11:26;;;;;;;8.20;7.45;;;21.00;71.50;;;;;;6205942;28;89199;-73
2023/04/03 02:14:28;;;;;;;8.45;7.65;;;21.00;71.60;;;;;;6193912;28;91799;-72
2023/04/03 02:17:32;;;;;;;7.72;6.95;;;21.00;71.50;;;;;;6203403;28;87346;-71
2023/04/03 02:20:34;;;;;;;7.88;7.13;;;21.00;71.60;;;;;;6201179;28;89162;-72
2023/04/03 02:23:36;;;;;;;7.53;6.82;;;21.00;71.50;;;;;;6192202;28;88960;-72
2023/04/03 02:26:38;;;;;;;7.50;6.80;;;21.00;71.50;;;;;;6202276;28;90259;-72
2023/04/03 02:29:40;;;;;;;7.55;6.85;;;21.00;71.50;;;;;;6206416;28;89117;-72
2023/04/03 02:32:44;;;;;;;7.65;6.95;;;21.00;71.50;;;;;;6189225;28;89016;-73
2023/04/03 02:35:52;;;;;;;7.85;7.05;;;21.00;71.50;;;;;;6190150;28;88262;-73
2023/04/03 02:38:54;;;;;;;7.68;6.97;;;21.00;71.50;;;;;;6193821;28;89048;-72
2023/04/03 02:41:56;;;;;;;7.03;6.40;;;21.00;71.50;;;;;;6204279;28;89145;-73
2023/04/03 02:45:00;;;;;;;7.13;6.50;;;21.00;71.60;;;;;;6203724;28;87935;-72
2023/04/03 02:48:04;;;;;;;7.43;6.45;;;21.00;71.60;;;;;;6207689;28;88728;-72
2023/04/03 02:51:06;;;;;;;6.80;6.20;;;21.00;71.60;;;;;;6203349;28;89149;-72
2023/04/03 02:54:08;;;;;;;6.80;6.20;;;21.00;71.60;;;;;;6193914;28;88792;-71
2023/04/03 02:57:11;;;;;;;6.65;6.05;;;21.00;71.60;;;;;;6206254;28;90009;-72
2023/04/03 03:00:14;;;;;;;6.47;5.88;;;20.90;71.60;;;;;;6207009;28;89162;-72
2023/04/03 03:03:17;;;;;;;6.78;6.07;;;20.90;71.40;;;;;;6191735;28;89068;-72
2023/04/03 03:06:19;;;;;;;6.35;5.75;;;21.00;71.40;;;;;;6196092;28;89081;-72
2023/04/03 03:09:21;;;;;;;6.80;6.18;;;21.00;71.60;;;;;;6203235;28;89181;-72
2023/04/03 03:12:24;;;;;;;6.47;5.88;;;21.00;71.50;;;;;;6205873;28;89038;-72
2023/04/03 03:15:26;;;;;;;6.57;5.97;;;21.00;71.50;;;;;;6200667;28;88242;-70
2023/04/03 03:18:30;;;;;;;6.07;5.47;;;21.00;71.60;;;;;;6199031;28;88388;-72
2023/04/03 03:21:32;;;;;;;6.10;5.55;;;21.00;71.60;;;;;;6208702;28;89110;-72
2023/04/03 03:24:34;;;;;;;6.22;5.63;;;20.90;71.60;;;;;;6199287;28;88624;-71
2023/04/03 03:27:36;;;;;;;5.90;5.30;;;20.90;71.40;;;;;;6189355;28;89997;-72
2023/04/03 03:30:38;;;;;;;5.85;5.35;;;20.90;71.30;;;;;;6182777;28;89099;-71
2023/04/03 03:33:42;;;;;;;5.75;5.25;;;20.90;71.30;;;;;;6200580;28;89091;-72
2023/04/03 03:36:44;;;;;;;6.10;5.50;;;20.90;71.30;;;;;;6202256;28;87955;-71
2023/04/03 03:39:46;;;;;;;5.60;5.10;;;20.90;71.40;;;;;;6198221;28;89025;-72
2023/04/03 03:42:48;;;;;;;5.80;5.20;;;20.90;71.30;;;;;;6192085;28;89329;-72
2023/04/03 03:45:52;;;;;;;5.80;5.25;;;20.90;71.30;;;;;;6194155;28;89112;-71
2023/04/03 03:48:56;;;;;;;7.05;5.72;;;20.90;71.20;;;;;;6198055;28;88281;-71
2023/04/03 03:51:58;;;;;;;5.05;4.63;;;21.00;71.20;;;;;;6207695;28;88219;-71
2023/04/03 03:55:00;;;;;;;5.25;4.80;;;20.90;71.10;;;;;;6193389;28;89054;-71
2023/04/03 03:58:03;;;;;;;5.30;4.80;;;21.00;71.10;;;;;;6192973;28;89974;-71
2023/04/03 04:01:06;;;;;;;4.85;4.45;;;20.90;71.00;;;;;;6189233;28;89043;-71
2023/04/03 04:04:10;;;;;;;5.18;4.68;;;21.00;71.10;;;;;;6194125;28;89225;-71
2023/04/03 04:07:12;;;;;;;5.10;4.60;;;21.00;71.10;;;;;;6183904;28;89066;-70
2023/04/03 04:10:14;;;;;;;5.07;4.68;;;21.00;71.00;;;;;;6195006;28;87953;-71
2023/04/03 04:13:16;;;;;;;5.65;4.60;;;21.00;71.00;;;;;;6187073;28;89129;-71
2023/04/03 04:16:18;;;;;;;4.93;4.53;;;21.00;71.00;;;;;;6203369;28;89090;-71
2023/04/03 04:19:22;;;;;;;4.80;4.40;;;21.10;70.90;;;;;;6187922;28;87796;-71
2023/04/03 04:22:24;;;;;;;4.70;4.30;;;21.10;70.90;;;;;;6196028;28;89363;-71
2023/04/03 04:25:26;;;;;;;4.80;4.40;;;21.10;70.80;;;;;;6204318;28;89151;-72
2023/04/03 04:28:28;;;;;;;4.65;4.25;;;21.10;70.70;;;;;;6205420;28;88855;-72
2023/04/03 04:31:30;;;;;;;5.10;4.60;;;21.10;70.70;;;;;;6201642;28;89079;-71
2023/04/03 04:34:33;;;;;;;5.00;4.47;;;21.20;70.80;;;;;;6205308;28;89626;-71
2023/04/03 04:37:35;;;;;;;4.47;4.07;;;21.20;70.80;;;;;;6194636;28;89249;-72
2023/04/03 04:40:38;;;;;;;4.60;4.20;;;21.20;70.80;;;;;;6206899;28;90206;-72
2023/04/03 04:43:40;;;;;;;4.72;4.32;;;21.20;70.70;;;;;;6192948;28;89131;-72
2023/04/03 04:46:43;;;;;;;4.85;4.35;;;21.20;70.70;;;;;;6193077;28;90147;-72
2023/04/03 04:49:48;;;;;;;4.50;4.10;;;21.20;70.70;;;;;;6198624;28;88398;-71
2023/04/03 04:52:50;;;;;;;4.63;4.15;;;21.20;70.60;;;;;;6194203;28;90368;-72
2023/04/03 04:55:52;;;;;;;4.38;3.97;;;21.20;70.60;;;;;;6192199;28;89460;-72
2023/04/03 04:58:54;;;;;;;4.53;4.13;;;21.30;70.70;;;;;;6197222;28;90001;-71
2023/04/03 05:01:56;;;;;;;4.47;4.07;;;21.30;70.50;;;;;;6200490;28;89175;-71
2023/04/03 05:05:00;;;;;;;4.57;4.18;;;21.30;70.50;;;;;;6205211;28;89020;-71
2023/04/03 05:08:02;;;;;;;4.72;4.22;;;21.30;70.50;;;;;;6202778;28;89149;-72
2023/04/03 05:11:04;;;;;;;4.70;4.30;;;21.30;70.40;;;;;;6192144;28;89078;-71
2023/04/03 05:14:07;;;;;;;4.35;3.95;;;21.30;70.50;;;;;;6200384;28;89091;-71
2023/04/03 05:17:09;;;;;;;4.65;4.25;;;21.30;70.40;;;;;;6204588;28;88059;-71
2023/04/03 05:20:13;;;;;;;4.65;4.25;;;21.30;70.50;;;;;;6203861;28;88317;-71
2023/04/03 05:23:15;;;;;;;4.35;3.95;;;21.40;70.50;;;;;;6197496;28;89127;-71
2023/04/03 05:26:17;;;;;;;4.68;4.20;;;21.40;70.50;;;;;;6202539;28;89126;-72
2023/04/03 05:29:19;;;;;;;4.40;4.00;;;21.30;70.40;;;;;;6204380;28;90035;-71
2023/04/03 05:32:21;;;;;;;4.78;4.28;;;21.40;70.50;;;;;;6205088;28;89146;-72
2023/04/03 05:35:25;;;;;;;4.90;4.38;;;21.40;70.50;;;;;;6204027;28;89064;-71
2023/04/03 05:38:28;;;;;;;4.82;4.35;;;21.40;70.40;;;;;;6191665;28;89512;-71
2023/04/03 05:41:30;;;;;;;4.32;3.92;;;21.40;70.30;;;;;;6205098;28;87988;-71
2023/04/03 05:44:32;;;;;;;4.55;4.15;;;21.40;70.30;;;;;;6205344;28;89091;-72
2023/04/03 05:47:34;;;;;;;4.72;4.28;;;21.40;70.30;;;;;;6202820;28;89047;-72
2023/04/03 05:50:41;;;;;;;4.60;4.20;;;21.40;70.30;;;;;;6206849;28;88421;-72
2023/04/03 05:53:44;;;;;;;4.38;3.97;;;21.40;70.30;;;;;;6205657;28;88993;-72
2023/04/03 05:56:46;;;;;;;4.72;4.22;;;21.40;70.30;;;;;;6202129;28;89149;-72
2023/04/03 05:59:48;;;;;;;4.90;4.30;;;21.50;70.30;;;;;;6195970;28;88846;-71
2023/04/03 06:02:50;;;;;;;4.93;4.53;;;21.50;70.30;;;;;;6197428;28;87208;-72
2023/04/03 06:05:54;;;;;;;4.68;4.28;;;21.50;70.30;;;;;;6208292;28;89165;-71
2023/04/03 06:08:56;;;;;;;4.82;4.32;;;21.50;70.20;;;;;;6199554;28;89217;-71
2023/04/03 06:11:59;;;;;;;4.70;4.30;;;21.50;70.20;;;;;;6187301;28;89254;-72
2023/04/03 06:15:02;;;;;;;5.25;4.75;;;21.50;70.20;;;;;;6208592;28;89065;-71
2023/04/03 06:18:04;;;;;;;4.80;4.32;;;21.50;70.20;;;;;;6201880;28;89300;-71
2023/04/03 06:21:07;;;;;;;4.80;4.40;;;21.50;70.10;;;;;;6211192;28;88332;-71
2023/04/03 06:24:11;;;;;;;5.10;4.60;;;21.50;70.10;;;;;;6205635;28;88086;-72
2023/04/03 06:27:13;;;;;;;4.90;4.38;;;21.50;70.10;;;;;;6208653;28;88993;-72
2023/04/03 06:30:15;;;;;;;4.57;4.18;;;21.50;70.10;;;;;;6196347;28;90030;-71
2023/04/03 06:33:17;;;;;;;4.50;4.10;;;21.50;70.10;;;;;;6193565;28;89517;-71
2023/04/03 06:36:21;;;;;;;4.90;4.18;;;21.60;70.10;;;;;;6199820;28;89464;-71
2023/04/03 06:39:24;;;;;;;4.30;3.90;;;21.50;70.10;;;;;;6188517;28;89008;-71
2023/04/03 06:42:26;;;;;;;4.40;4.00;;;21.60;70.10;;;;;;6191719;28;89724;-72
2023/04/03 06:45:28;;;;;;;4.90;4.40;;;21.60;70.10;;;;;;6201537;28;88783;-72
2023/04/03 06:48:30;;;;;;;4.88;4.38;;;21.60;70.10;;;;;;6196357;28;91005;-72
2023/04/03 06:51:34;;;;;;;5.03;4.47;;;21.60;70.10;;;;;;6197101;28;88420;-71
2023/04/03 06:54:36;;;;;;;4.57;4.18;;;21.60;70.00;;;;;;6192517;28;89097;-72
2023/04/03 06:57:38;;;;;;;4.82;4.32;;;21.60;70.00;;;;;;6194533;28;89085;-72
2023/04/03 07:00:40;;;;;;;4.57;4.13;;;21.60;70.00;;;;;;6209094;28;90006;-71
2023/04/03 07:03:43;;;;;;;4.78;4.28;;;21.60;70.00;;;;;;6201909;28;89262;-72
2023/04/03 07:06:47;;;;;;;4.45;4.05;;;21.60;69.90;;;;;;6187950;28;89228;-71
2023/04/03 07:09:49;;;;;;;4.55;4.15;;;21.60;70.00;;;;;;6205889;28;88706;-71
2023/04/03 07:12:51;;;;;;;5.05;4.55;;;21.60;70.00;;;;;;6205487;28;89052;-71
2023/04/03 07:15:53;;;;;;;4.35;3.95;;;21.70;70.00;;;;;;6205366;28;89092;-71
2023/04/03 07:18:55;;;;;;;4.93;4.43;;;21.60;69.90;;;;;;6205004;28;89045;-72
2023/04/03 07:21:59;;;;;;;4.65;4.25;;;21.60;69.90;;;;;;6199186;28;88779;-71
2023/04/03 07:25:02;;;;;;;4.88;4.25;;;21.70;70.00;;;;;;6191018;28;89246;-71
2023/04/03 07:28:04;;;;;;;4.35;3.95;;;21.70;69.90;;;;;;6200324;28;87986;-72
2023/04/03 07:31:10;;;;;;;3.97;3.67;;;21.70;70.00;;;;;;6193930;28;90004;-71
2023/04/03 07:34:12;;;;;;;4.20;3.80;;;21.70;69.90;;;;;;6199864;28;89163;-72
2023/04/03 07:37:17;;;;;;;5.43;3.92;;;21.70;69.90;;;;;;6207944;28;89157;-71
2023/04/03 07:40:19;;;;;;;4.20;3.80;;;21.70;70.10;;;;;;6191966;28;89351;-72
2023/04/03 07:43:24;;;;;;;4.15;3.75;;;21.70;69.90;;;;;;6196164;28;89215;-72
2023/04/03 07:46:26;;;;;;;4.18;3.78;;;21.70;69.80;;;;;;6197271;28;91154;-71
2023/04/03 07:49:28;;;;;;;3.97;3.67;;;21.70;69.90;;;;;;6197646;28;88423;-72
2023/04/03 07:52:32;;;;;;;4.40;4.00;;;21.70;69.90;;;;;;6194444;28;89050;-71
2023/04/03 07:55:36;;;;;;;4.70;4.10;;;21.70;69.80;;;;;;6190594;28;89083;-71
2023/04/03 07:58:39;;;;;;;4.32;3.92;;;21.70;69.80;;;;;;6207459;28;89573;-71
2023/04/03 08:01:41;;;;;;;3.97;3.60;;;21.70;69.80;;;;;;6188168;28;90324;-72
2023/04/03 08:04:43;;;;;;;4.07;3.72;;;21.70;69.90;;;;;;6206930;28;89141;-72
2023/04/03 08:07:47;;;;;;;4.25;3.85;;;21.70;69.80;;;;;;6193322;28;89479;-71
2023/04/03 08:10:51;;;;;;;3.83;3.45;;;21.70;69.80;;;;;;6206502;28;88991;-71
2023/04/03 08:13:53;;;;;;;3.95;3.65;;;21.70;69.80;;;;;;6200394;28;87916;-71
2023/04/03 08:16:55;;;;;;;4.15;3.75;;;21.80;69.80;;;;;;6201289;28;89111;-71
2023/04/03 08:19:57;;;;;;;4.25;3.85;;;21.80;69.80;;;;;;6206339;28;88233;-72
2023/04/03 08:23:01;;;;;;;3.70;3.40;;;21.70;69.80;;;;;;6203713;28;88807;-72
2023/04/03 08:26:08;;;;;;;3.90;3.47;;;21.80;69.80;;;;;;6204702;28;89441;-72
2023/04/03 08:29:10;;;;;;;4.78;3.88;;;21.80;69.80;;;;;;6203965;28;89330;-70
2023/04/03 08:32:12;;;;;;;3.70;3.33;;;21.80;69.80;;;;;;6193035;28;88906;-72
2023/04/03 08:35:14;;;;;;;3.97;3.58;;;21.80;69.80;;;;;;6195621;28;89043;-71
2023/04/03 08:38:17;;;;;;;3.30;3.05;;;21.80;69.80;;;;;;6203472;28;88876;-71
2023/04/03 08:41:30;;;;;;;3.50;3.20;;;21.70;69.80;;;;;;6193686;28;87981;-71
2023/04/03 08:44:40;;;;;;;3.50;3.20;;;21.80;69.80;;;;;;6196659;28;89056;-70
2023/04/03 08:47:48;;;;;;;3.45;3.15;;;21.80;69.80;;;;;;6194346;28;87829;-72
2023/04/03 08:50:54;;;;;;;3.38;3.08;;;21.80;69.80;;;;;;6198157;28;88891;-71
2023/04/03 08:54:03;;;;;;;4.38;3.50;;;21.80;69.80;;;;;;6192684;28;88167;-71
2023/04/03 08:57:06;;;;;;;4.05;3.40;;;21.80;69.80;;;;;;6205612;28;89087;-71
2023/04/03 09:00:18;;;;;;;3.55;3.25;;;21.80;69.70;;;;;;6204745;28;89108;-71
2023/04/03 09:03:22;;;;;;;3.70;3.40;;;21.80;69.80;;;;;;6181091;28;90173;-71
2023/04/03 09:06:29;;;;;;;3.42;3.13;;;21.80;69.80;;;;;;6193618;28;89424;-71
2023/04/03 09:09:39;;;;;;;3.30;3.00;;;21.80;69.80;;;;;;6194127;28;88331;-71
2023/04/03 09:12:46;;;;;;;3.50;3.20;;;21.80;69.70;;;;;;6200722;28;89011;-71
2023/04/03 09:15:49;;;;;;;3.30;3.00;;;21.80;69.70;;;;;;6190695;28;89499;-71
2023/04/03 09:18:57;;;;;;;4.63;3.45;;;21.80;69.70;;;;;;6204133;28;87951;-71
2023/04/03 09:22:02;;;;;;;3.38;3.08;;;21.80;69.60;;;;;;6208648;28;89182;-72
2023/04/03 09:25:12;;;;;;;3.38;3.08;;;21.80;69.60;;;;;;6206473;28;88433;-72
2023/04/03 09:28:15;;;;;;;3.92;3.08;;;21.80;69.60;;;;;;6201457;28;89636;-71
2023/04/03 09:31:21;;;;;;;3.30;3.00;;;21.80;69.60;;;;;;6185932;28;89238;-71
2023/04/03 09:34:27;;;;;;;3.00;2.70;;;21.90;69.60;;;;;;6197465;28;90169;-72
2023/04/03 09:37:42;;;;;;;3.25;2.95;;;21.80;69.60;;;;;;6186072;28;89129;-71
2023/04/03 09:40:48;;;;;;;3.10;2.80;;;21.80;69.50;;;;;;6190443;28;89504;-72
2023/04/03 09:43:55;;;;;;;3.17;2.90;;;21.80;69.50;;;;;;6205959;28;88232;-71
2023/04/03 09:46:58;;;;;;;3.35;3.05;;;21.80;69.50;;;;;;6200884;28;89107;-71
2023/04/03 09:50:23;;;;;;;3.03;2.75;;;21.90;69.60;;;;;;6208757;28;89144;-72
2023/04/03 09:53:29;;;;;;;3.25;2.95;;;21.80;69.50;;;;;;6197086;28;89432;-71
2023/04/03 09:56:34;;;;;;;3.05;2.75;;;21.80;69.40;;;;;;6197262;28;88557;-71
2023/04/03 09:59:38;;;;;;;3.20;2.90;;;21.90;69.50;;;;;;6186106;28;89002;-71
2023/04/03 10:02:41;;;;;;;2.92;2.67;;;21.80;69.50;;;;;;6198286;28;89351;-71
2023/04/03 10:05:43;;;;;;;2.78;2.58;;;21.90;69.50;;;;;;6194891;28;89994;-71
2023/04/03 10:09:00;;;;;;;2.90;2.70;;;21.90;69.50;;;;;;6184045;28;89189;-71
2023/04/03 10:12:06;;;;;;;3.15;2.60;;;21.90;69.50;;;;;;6190845;28;89169;-71
2023/04/03 10:15:14;;;;;;;3.90;2.97;;;21.90;69.40;;;;;;6204566;28;89539;-71
2023/04/03 10:18:32;;;;;;;3.05;2.67;;;21.90;69.40;;;;;;6206309;28;89182;-71
2023/04/03 10:21:44;;;;;;;2.95;2.65;;;21.90;69.40;;;;;;6210806;28;89108;-71
2023/04/03 10:24:53;;;;;;;2.65;2.45;;;21.90;69.40;;;;;;6197190;28;89059;-71
2023/04/03 10:28:01;;;;;;;2.83;2.53;;;21.90;69.40;;;;;;6189388;28;88302;-71
2023/04/03 10:31:11;;;;;;;3.03;2.63;;;21.90;69.40;;;;;;6194039;28;89066;-71
2023/04/03 10:34:22;;;;;;;2.58;2.38;;;22.00;69.40;;;;;;6195415;28;89186;-72
2023/04/03 10:37:28;;;;;;;2.80;2.60;;;21.90;69.30;;;;;;6205036;28;90080;-71
2023/04/03 10:40:36;;;;;;;3.15;2.85;;;21.90;70.30;;;;;;6187132;28;89042;-71
2023/04/03 10:43:52;;;;;;;3.75;2.90;;;21.90;69.40;;;;;;6193978;28;88014;-71
2023/04/03 10:47:01;;;;;;;2.60;2.40;;;21.90;69.30;;;;;;6192721;28;89090;-71
2023/04/03 10:50:14;;;;;;;2.75;2.53;;;21.90;69.40;;;;;;6205983;28;89170;-71
2023/04/03 10:53:26;;;;;;;2.38;2.17;;;22.00;69.40;;;;;;6206891;28;89033;-71
2023/04/03 10:56:37;;;;;;;2.90;2.60;;;22.00;69.40;;;;;;6196472;28;89208;-72
2023/04/03 10:59:44;;;;;;;2.65;2.45;;;22.00;69.30;;;;;;6206569;28;87196;-71
2023/04/03 11:02:52;;;;;;;2.55;2.35;;;22.00;69.30;;;;;;6196878;28;88255;-71
2023/04/03 11:05:57;;;;;;;2.50;2.30;;;22.00;69.30;;;;;;6196283;28;89159;-72
2023/04/03 11:09:03;;;;;;;2.72;2.30;;;22.00;69.30;;;;;;6215467;28;89662;-73
2023/04/03 11:12:11;;;;;;;2.53;2.33;;;22.00;69.30;;;;;;6199252;28;88031;-72
2023/04/03 11:15:18;;;;;;;2.40;2.20;;;22.00;69.30;;;;;;6203977;28;89335;-72
2023/04/03 11:18:23;;;;;;;3.15;2.60;;;22.00;69.30;;;;;;6216446;28;89105;-72
2023/04/03 11:21:31;;;;;;;2.70;2.50;;;22.00;69.30;;;;;;6196187;28;89107;-72
2023/04/03 11:24:35;;;;;;;2.50;2.30;;;22.00;69.20;;;;;;6194657;28;89072;-72
2023/04/03 11:27:45;;;;;;;2.65;2.40;;;22.00;69.20;;;;;;6189102;28;89188;-72
2023/04/03 11:30:54;;;;;;;2.83;2.63;;;22.00;69.20;;;;;;6215806;28;88316;-71
2023/04/03 11:34:06;;;;;;;2.75;2.30;;;22.00;69.20;;;;;;6193897;28;88032;-72
2023/04/03 11:37:16;;;;;;;2.83;2.40;;;22.00;69.10;;;;;;6196647;28;89070;-71
2023/04/03 11:40:25;;;;;;;3.05;2.45;;;22.00;69.10;;;;;;6196794;28;90290;-71
2023/04/03 11:43:29;;;;;;;3.17;2.58;;;22.00;69.10;;;;;;6204271;28;89126;-72
2023/04/03 11:46:55;;;;;;;2.10;1.90;;;22.00;69.10;;;;;;6191306;28;88976;-72
2023/04/03 11:50:00;;;;;;;2.50;2.30;;;22.00;69.10;;;;;;6182036;28;89080;-71
2023/04/03 11:53:24;;;;;;;2.30;2.05;;;22.00;69.10;;;;;;6202485;28;89218;-72
2023/04/03 11:56:32;;;;;;;2.28;2.08;;;22.00;69.10;;;;;;6193651;28;89963;-72
2023/04/03 11:59:38;;;;;;;2.42;2.10;;;22.00;69.10;;;;;;6197383;28;89083;-71
2023/04/03 12:02:41;;;;;;;2.20;2.00;;;22.00;69.10;;;;;;6194321;28;89150;-71
2023/04/03 12:05:44;;;;;;;2.30;2.10;;;22.10;69.10;;;;;;6192757;28;89387;-71
2023/04/03 12:08:47;;;;;;;2.08;1.88;;;22.10;69.10;;;;;;6199157;28;89105;-71
2023/04/03 12:11:50;;;;;;;2.85;2.25;;;22.00;69.10;;;;;;6201251;28;90021;-72
2023/04/03 12:14:52;;;;;;;2.22;2.03;;;22.00;69.10;;;;;;6206104;28;88007;-71
2023/04/03 12:17:56;;;;;;;2.35;2.15;;;22.00;69.10;;;;;;6201244;28;89030;-72
2023/04/03 12:21:00;;;;;;;2.28;2.00;;;22.10;69.20;;;;;;6202566;28;89054;-72
2023/04/03 12:24:24;;;;;;;2.03;1.85;;;22.10;69.10;;;;;;6202327;28;89109;-72
2023/04/03 12:27:32;;;;;;;2.50;2.30;;;22.10;69.10;;;;;;6197595;28;89100;-72
2023/04/03 12:30:36;;;;;;;2.28;2.08;;;22.00;69.00;;;;;;6192511;28;89120;-71
2023/04/03 12:33:57;;;;;;;2.38;2.15;;;22.10;69.10;;;;;;6200168;28;88262;-72
2023/04/03 12:37:04;;;;;;;2.50;2.13;;;22.10;69.10;;;;;;6202778;28;89139;-72
2023/04/03 12:40:17;;;;;;;1.83;1.73;;;22.10;69.10;;;;;;6206001;28;87770;-71
2023/04/03 12:43:33;;;;;;;2.30;2.10;;;22.00;69.10;;;;;;6204949;28;90039;-72
2023/04/03 12:46:40;;;;;;;2.03;1.92;;;22.10;69.20;;;;;;6204919;28;89058;-71
2023/04/03 12:49:44;;;;;;;2.30;2.10;;;22.10;69.10;;;;;;6182625;28;89183;-72
2023/04/03 12:52:53;;;;;;;2.00;1.80;;;22.10;69.10;;;;;;6187940;28;89169;-72
2023/04/03 12:55:56;;;;;;;2.28;2.08;;;22.10;69.10;;;;;;6192612;28;88988;-71
2023/04/03 12:59:15;;;;;;;2.17;1.80;;;22.00;69.10;;;;;;6192801;28;89116;-72
2023/04/03 13:02:26;;;;;;;2.00;1.88;;;22.10;69.10;;;;;;6197172;28;89120;-72
2023/04/03 13:05:32;;;;;;;1.85;1.70;;;22.10;69.10;;;;;;6197304;28;88244;-72
2023/04/03 13:08:34;;;;;;;1.95;1.80;;;22.00;69.10;;;;;;6204338;28;89122;-71
2023/04/03 13:11:40;;;;;;;2.53;2.03;;;22.10;69.10;;;;;;6193844;28;89079;-71
2023/04/03 13:14:52;;;;;;;2.10;1.90;;;22.10;69.10;;;;;;6205772;28;89938;-71
2023/04/03 13:17:55;;;;;;;1.90;1.80;;;22.10;69.10;;;;;;6200216;28;88985;-71
2023/04/03 13:21:04;;;;;;;2.20;1.77;;;22.10;69.10;;;;;;6200451;28;89031;-72
2023/04/03 13:24:06;;;;;;;2.00;1.80;;;22.10;69.10;;;;;;6191498;28;89098;-71
2023/04/03 13:27:11;;;;;;;1.90;1.70;;;22.00;69.10;;;;;;6191003;28;89301;-72
2023/04/03 13:30:30;;;;;;;2.13;1.90;;;22.10;69.10;;;;;;6204558;28;89035;-71
2023/04/03 13:33:37;;;;;;;2.55;1.95;;;22.10;69.10;;;;;;6208580;28;89831;-72
2023/04/03 13:36:44;;;;;;;2.67;2.08;;;22.10;69.10;;;;;;6204096;28;87279;-72
2023/04/03 13:39:57;;;;;;;2.15;1.90;;;22.10;69.10;;;;;;6182985;28;89185;-71
2023/04/03 13:43:01;;;;;;;2.25;1.95;;;22.10;69.10;;;;;;6191182;28;89032;-72
2023/04/03 13:46:21;;;;;;;1.75;1.65;;;22.10;69.10;;;;;;6184508;28;90033;-72
2023/04/03 13:49:30;;;;;;;1.90;1.70;;;22.00;69.00;;;;;;6198473;28;89106;-72
2023/04/03 13:52:40;;;;;;;1.70;1.60;;;22.10;69.10;;;;;;6199543;28;89066;-72
2023/04/03 13:55:57;;;;;;;1.75;1.65;;;22.10;69.00;;;;;;6198450;28;89169;-72
2023/04/03 13:59:06;;;;;;;2.13;1.77;;;22.10;69.10;;;;;;6191718;28;89032;-72
2023/04/03 14:02:17;;;;;;;1.83;1.67;;;22.10;69.00;;;;;;6191948;28;89438;-72
2023/04/03 14:05:21;;;;;;;1.88;1.70;;;22.10;69.00;;;;;;6185875;28;89155;-73
2023/04/03 14:08:24;;;;;;;2.00;1.80;;;22.10;69.00;;;;;;6190865;28;89064;-72
2023/04/03 14:11:30;;;;;;;2.03;1.70;;;22.10;69.00;;;;;;6215466;28;89174;-73
2023/04/03 14:14:35;;;;;;;2.20;1.85;;;22.10;69.00;;;;;;6194623;28;89181;-72
2023/04/03 14:17:37;;;;;;;2.10;1.90;;;22.10;69.00;;;;;;6191342;28;90258;-72
2023/04/03 14:20:39;;;;;;;1.85;1.70;;;22.10;69.00;;;;;;6207254;28;89027;-73
2023/04/03 14:23:42;;;;;;;1.77;1.58;;;22.10;69.10;;;;;;6201437;28;89077;-73
2023/04/03 14:26:45;;;;;;;1.77;1.67;;;22.10;69.00;;;;;;6193471;28;88034;-73
2023/04/03 14:29:48;;;;;;;1.75;1.65;;;22.10;69.00;;;;;;6204809;28;89089;-71
2023/04/03 14:32:50;;;;;;;1.92;1.75;;;22.10;68.90;;;;;;6194019;28;89163;-72
2023/04/03 14:35:53;;;;;;;1.85;1.70;;;22.10;68.90;;;;;;6198037;28;89224;-72
2023/04/03 14:38:57;;;;;;;2.90;1.83;;;22.10;69.10;;;;;;6191954;28;88360;-72
2023/04/03 14:41:59;;;;;;;2.20;1.88;;;22.10;68.90;;;;;;6199642;28;88918;-72
2023/04/03 14:45:03;;;;;;;1.60;1.50;;;22.10;68.90;;;;;;6194836;28;89389;-72
2023/04/03 14:48:05;;;;;;;1.65;1.50;;;22.10;69.00;;;;;;6203536;28;89989;-72
2023/04/03 14:51:07;;;;;;;1.90;1.70;;;22.10;68.90;;;;;;6199962;28;89096;-72
2023/04/03 14:54:15;;;;;;;2.10;1.60;;;22.10;68.90;;;;;;6199463;28;89102;-72
2023/04/03 14:57:18;;;;;;;1.65;1.55;;;22.10;68.90;;;;;;6192468;28;89077;-72
2023/04/03 15:00:22;;;;;;;1.52;1.42;;;22.10;68.90;;;;;;6194492;28;89103;-72
2023/04/03 15:03:24;;;;;;;1.60;1.50;;;22.10;68.90;;;;;;6194336;28;89728;-72
2023/04/03 15:06:26;;;;;;;2.28;1.70;;;22.10;68.90;;;;;;6186025;28;89129;-72
2023/04/03 15:09:30;;;;;;;1.70;1.60;;;22.10;68.90;;;;;;6193958;28;88665;-72
2023/04/03 15:12:32;;;;;;;1.60;1.50;;;22.10;69.80;;;;;;6190304;28;89192;-72
2023/04/03 15:15:36;;;;;;;1.52;1.42;;;22.20;68.90;;;;;;6194330;28;89182;-72
2023/04/03 15:18:39;;;;;;;1.60;1.50;;;22.10;68.90;;;;;;6200441;28;90034;-73
2023/04/03 15:21:41;;;;;;;1.90;1.70;;;22.10;68.90;;;;;;6202076;28;89051;-72
2023/04/03 15:24:45;;;;;;;1.70;1.60;;;22.20;68.90;;;;;;6209564;28;89305;-71
2023/04/03 15:27:47;;;;;;;1.75;1.63;;;22.20;68.90;;;;;;6211377;28;89414;-72
2023/04/03 15:30:49;;;;;;;2.75;1.90;;;22.20;68.90;;;;;;6203219;28;89052;-71
2023/04/03 15:33:52;;;;;;;2.25;1.90;;;22.20;68.90;;;;;;6185126;28;87944;-72
2023/04/03 15:36:54;;;;;;;1.77;1.60;;;22.20;68.90;;;;;;6195137;28;89132;-71
2023/04/03 15:39:57;;;;;;;1.80;1.70;;;22.10;68.80;;;;;;6183431;28;88389;-70
2023/04/03 15:42:59;;;;;;;1.75;1.65;;;22.20;68.90;;;;;;6194059;28;88010;-71
2023/04/03 15:46:02;;;;;;;1.80;1.60;;;22.20;68.90;;;;;;6201359;28;89142;-71
2023/04/03 15:49:04;;;;;;;1.80;1.60;;;22.20;68.90;;;;;;6203004;28;90022;-71
2023/04/03 15:52:06;;;;;;;2.83;2.28;;;22.10;68.90;;;;;;6181666;28;89216;-71
2023/04/03 15:55:10;;;;;;;2.22;1.75;;;22.20;68.90;;;;;;6195790;28;89083;-71
2023/04/03 15:58:12;;;;;;;1.73;1.63;;;22.20;69.00;;;;;;6183709;28;89006;-71
2023/04/03 16:01:14;;;;;;;1.75;1.65;;;22.10;68.90;;;;;;6191265;28;89029;-71